sensor_id;sensor_type;location;lat;lon;timestamp;pressure;altitude;pressure_sealevel;temperature;humidity
61128;BME280;47013;42.664;23.242;2023-05-24T00:00:27;93854.16;;;12.81;84.41
61128;BME280;47013;42.664;23.242;2023-05-24T00:02:53;93852.72;;;12.76;84.37
61128;BME280;47013;42.664;23.242;2023-05-24T00:05:18;93845.72;;;12.75;84.25
61128;BME280;47013;42.664;23.242;2023-05-24T00:07:43;93851.91;;;12.76;84.26
61128;BME280;47013;42.664;23.242;2023-05-24T00:10:10;93853.19;;;12.71;85.47
61128;BME280;47013;42.664;23.242;2023-05-24T00:12:35;93848.19;;;12.69;85.75
61128;BME280;47013;42.664;23.242;2023-05-24T00:15:00;93845.88;;;12.68;85.44
61128;BME280;47013;42.664;23.242;2023-05-24T00:17:26;93852.44;;;12.70;85.13
61128;BME280;47013;42.664;23.242;2023-05-24T00:19:54;93858.28;;;12.69;85.08
61128;BME280;47013;42.664;23.242;2023-05-24T00:22:20;93850.03;;;12.73;85.52
61128;BME280;47013;42.664;23.242;2023-05-24T00:24:48;93845.88;;;12.68;86.16
61128;BME280;47013;42.664;23.242;2023-05-24T00:27:14;93844.78;;;12.65;86.09
61128;BME280;47013;42.664;23.242;2023-05-24T00:29:39;93837.44;;;12.62;86.17
61128;BME280;47013;42.664;23.242;2023-05-24T00:32:05;93834.44;;;12.57;86.84
61128;BME280;47013;42.664;23.242;2023-05-24T00:34:30;93843.03;;;12.55;87.47
61128;BME280;47013;42.664;23.242;2023-05-24T00:36:56;93838.34;;;12.56;88.16
61128;BME280;47013;42.664;23.242;2023-05-24T00:39:22;93832.66;;;12.50;88.35
61128;BME280;47013;42.664;23.242;2023-05-24T00:41:47;93835.72;;;12.52;88.89
61128;BME280;47013;42.664;23.242;2023-05-24T00:44:12;93832.28;;;12.48;88.24
61128;BME280;47013;42.664;23.242;2023-05-24T00:46:38;93834.66;;;12.46;88.33
61128;BME280;47013;42.664;23.242;2023-05-24T00:49:03;93837.81;;;12.45;88.95
61128;BME280;47013;42.664;23.242;2023-05-24T00:51:29;93838.56;;;12.45;88.90
61128;BME280;47013;42.664;23.242;2023-05-24T00:53:56;93831.59;;;12.44;88.64
61128;BME280;47013;42.664;23.242;2023-05-24T00:56:22;93839.34;;;12.46;88.19
61128;BME280;47013;42.664;23.242;2023-05-24T00:58:48;93833.13;;;12.45;87.93
61128;BME280;47013;42.664;23.242;2023-05-24T01:01:15;93835.59;;;12.39;87.86
61128;BME280;47013;42.664;23.242;2023-05-24T01:03:40;93834.88;;;12.35;87.87
61128;BME280;47013;42.664;23.242;2023-05-24T01:06:07;93841.56;;;12.31;88.45
61128;BME280;47013;42.664;23.242;2023-05-24T01:14:13;93852.63;;;12.00;92.09
61128;BME280;47013;42.664;23.242;2023-05-24T01:16:54;93853.41;;;12.01;92.87
61128;BME280;47013;42.664;23.242;2023-05-24T01:22:20;93854.88;;;12.05;93.82
61128;BME280;47013;42.664;23.242;2023-05-24T01:24:57;93858.00;;;12.04;92.64
61128;BME280;47013;42.664;23.242;2023-05-24T01:27:24;93854.59;;;12.00;93.11
61128;BME280;47013;42.664;23.242;2023-05-24T01:29:50;93846.47;;;11.96;93.40
61128;BME280;47013;42.664;23.242;2023-05-24T01:32:19;93844.94;;;11.95;93.96
61128;BME280;47013;42.664;23.242;2023-05-24T01:34:45;93846.91;;;11.95;94.03
61128;BME280;47013;42.664;23.242;2023-05-24T01:37:10;93850.38;;;11.95;94.20
61128;BME280;47013;42.664;23.242;2023-05-24T01:39:36;93845.03;;;11.92;93.99
61128;BME280;47013;42.664;23.242;2023-05-24T01:45:16;93855.41;;;11.97;94.96
61128;BME280;47013;42.664;23.242;2023-05-24T01:50:37;93851.09;;;11.99;94.01
61128;BME280;47013;42.664;23.242;2023-05-24T01:53:08;93847.63;;;11.99;93.71
61128;BME280;47013;42.664;23.242;2023-05-24T01:55:37;93851.50;;;11.98;93.92
61128;BME280;47013;42.664;23.242;2023-05-24T01:58:05;93849.63;;;11.95;93.23
61128;BME280;47013;42.664;23.242;2023-05-24T02:00:32;93850.81;;;11.94;92.61
61128;BME280;47013;42.664;23.242;2023-05-24T02:02:59;93847.56;;;11.79;88.77
61128;BME280;47013;42.664;23.242;2023-05-24T02:05:26;93834.75;;;11.79;89.29
61128;BME280;47013;42.664;23.242;2023-05-24T02:07:51;93837.81;;;11.81;89.06
61128;BME280;47013;42.664;23.242;2023-05-24T02:10:16;93836.28;;;11.80;89.27
61128;BME280;47013;42.664;23.242;2023-05-24T02:12:42;93835.53;;;11.80;89.74
61128;BME280;47013;42.664;23.242;2023-05-24T02:15:08;93835.56;;;11.76;90.71
61128;BME280;47013;42.664;23.242;2023-05-24T02:17:34;93831.75;;;11.74;91.13
61128;BME280;47013;42.664;23.242;2023-05-24T02:20:00;93831.38;;;11.72;92.10
61128;BME280;47013;42.664;23.242;2023-05-24T02:22:26;93828.13;;;11.57;92.26
61128;BME280;47013;42.664;23.242;2023-05-24T02:24:52;93825.41;;;11.57;92.47
61128;BME280;47013;42.664;23.242;2023-05-24T02:27:18;93833.88;;;11.63;92.41
61128;BME280;47013;42.664;23.242;2023-05-24T02:29:44;93833.09;;;11.62;92.95
61128;BME280;47013;42.664;23.242;2023-05-24T02:32:09;93826.56;;;11.60;93.93
61128;BME280;47013;42.664;23.242;2023-05-24T02:34:35;93830.41;;;11.59;93.94
61128;BME280;47013;42.664;23.242;2023-05-24T02:37:00;93824.44;;;11.47;90.07
61128;BME280;47013;42.664;23.242;2023-05-24T02:39:26;93822.84;;;11.00;87.71
61128;BME280;47013;42.664;23.242;2023-05-24T02:41:51;93826.88;;;11.15;88.76
61128;BME280;47013;42.664;23.242;2023-05-24T02:44:17;93824.47;;;11.20;89.25
61128;BME280;47013;42.664;23.242;2023-05-24T02:46:42;93823.22;;;11.25;90.20
61128;BME280;47013;42.664;23.242;2023-05-24T02:49:08;93824.81;;;11.22;86.12
61128;BME280;47013;42.664;23.242;2023-05-24T02:51:34;93830.59;;;11.25;87.50
61128;BME280;47013;42.664;23.242;2023-05-24T02:54:01;93830.91;;;11.30;88.85
61128;BME280;47013;42.664;23.242;2023-05-24T02:56:27;93835.09;;;11.35;88.65
61128;BME280;47013;42.664;23.242;2023-05-24T02:58:53;93828.84;;;11.38;90.00
61128;BME280;47013;42.664;23.242;2023-05-24T03:01:20;93838.53;;;11.39;87.72
61128;BME280;47013;42.664;23.242;2023-05-24T03:03:46;93840.84;;;11.13;86.19
61128;BME280;47013;42.664;23.242;2023-05-24T03:06:11;93847.00;;;10.90;86.94
61128;BME280;47013;42.664;23.242;2023-05-24T03:08:39;93851.84;;;11.03;88.12
61128;BME280;47013;42.664;23.242;2023-05-24T03:11:04;93854.13;;;11.08;88.71
61128;BME280;47013;42.664;23.242;2023-05-24T03:13:30;93845.16;;;11.11;86.95
61128;BME280;47013;42.664;23.242;2023-05-24T03:15:55;93854.34;;;11.20;88.17
61128;BME280;47013;42.664;23.242;2023-05-24T03:18:21;93848.06;;;11.23;88.17
61128;BME280;47013;42.664;23.242;2023-05-24T03:20:46;93856.16;;;11.27;88.65
61128;BME280;47013;42.664;23.242;2023-05-24T03:23:11;93853.38;;;11.31;88.54
61128;BME280;47013;42.664;23.242;2023-05-24T03:25:37;93859.53;;;11.35;88.15
61128;BME280;47013;42.664;23.242;2023-05-24T03:28:02;93859.13;;;11.36;88.58
61128;BME280;47013;42.664;23.242;2023-05-24T03:30:28;93860.25;;;11.39;88.45
61128;BME280;47013;42.664;23.242;2023-05-24T03:32:53;93859.47;;;11.38;88.70
61128;BME280;47013;42.664;23.242;2023-05-24T03:35:19;93867.13;;;11.43;88.42
61128;BME280;47013;42.664;23.242;2023-05-24T03:37:45;93859.34;;;11.45;86.76
61128;BME280;47013;42.664;23.242;2023-05-24T03:40:10;93859.31;;;11.49;86.90
61128;BME280;47013;42.664;23.242;2023-05-24T03:42:36;93856.88;;;11.55;87.47
61128;BME280;47013;42.664;23.242;2023-05-24T03:45:03;93863.00;;;11.59;87.04
61128;BME280;47013;42.664;23.242;2023-05-24T03:47:29;93861.78;;;11.63;87.43
61128;BME280;47013;42.664;23.242;2023-05-24T03:49:54;93862.78;;;11.73;87.43
61128;BME280;47013;42.664;23.242;2023-05-24T03:52:20;93863.91;;;11.75;86.65
61128;BME280;47013;42.664;23.242;2023-05-24T03:54:45;93865.78;;;11.78;85.40
61128;BME280;47013;42.664;23.242;2023-05-24T03:57:11;93858.06;;;11.77;83.98
61128;BME280;47013;42.664;23.242;2023-05-24T03:59:36;93859.09;;;11.87;86.38
61128;BME280;47013;42.664;23.242;2023-05-24T04:02:01;93864.75;;;11.96;88.29
61128;BME280;47013;42.664;23.242;2023-05-24T04:04:27;93873.06;;;12.08;90.11
61128;BME280;47013;42.664;23.242;2023-05-24T04:06:52;93861.28;;;12.15;89.69
61128;BME280;47013;42.664;23.242;2023-05-24T04:09:18;93864.28;;;12.21;89.81
61128;BME280;47013;42.664;23.242;2023-05-24T04:11:43;93869.88;;;12.33;88.95
61128;BME280;47013;42.664;23.242;2023-05-24T04:14:09;93870.50;;;12.41;90.60
61128;BME280;47013;42.664;23.242;2023-05-24T04:16:34;93864.09;;;12.51;88.47
61128;BME280;47013;42.664;23.242;2023-05-24T04:19:00;93870.22;;;12.55;87.08
61128;BME280;47013;42.664;23.242;2023-05-24T04:21:28;93870.06;;;12.62;87.17
61128;BME280;47013;42.664;23.242;2023-05-24T04:23:53;93866.53;;;12.65;86.84
61128;BME280;47013;42.664;23.242;2023-05-24T04:26:20;93864.72;;;12.79;87.36
61128;BME280;47013;42.664;23.242;2023-05-24T04:28:46;93860.63;;;12.87;87.69
61128;BME280;47013;42.664;23.242;2023-05-24T04:31:12;93863.44;;;12.83;86.63
61128;BME280;47013;42.664;23.242;2023-05-24T04:33:39;93872.34;;;12.84;87.33
61128;BME280;47013;42.664;23.242;2023-05-24T04:36:05;93872.16;;;12.75;87.13
61128;BME280;47013;42.664;23.242;2023-05-24T04:38:32;93883.53;;;12.69;86.45
61128;BME280;47013;42.664;23.242;2023-05-24T04:40:58;93883.88;;;12.72;86.89
61128;BME280;47013;42.664;23.242;2023-05-24T04:43:24;93878.03;;;12.73;87.26
61128;BME280;47013;42.664;23.242;2023-05-24T04:45:55;93890.38;;;12.78;87.95
61128;BME280;47013;42.664;23.242;2023-05-24T04:48:21;93896.34;;;12.89;88.03
61128;BME280;47013;42.664;23.242;2023-05-24T04:50:52;93898.59;;;12.94;87.47
61128;BME280;47013;42.664;23.242;2023-05-24T04:53:19;93902.63;;;13.06;86.50
61128;BME280;47013;42.664;23.242;2023-05-24T04:55:45;93905.88;;;13.17;85.20
61128;BME280;47013;42.664;23.242;2023-05-24T04:58:11;93907.63;;;13.27;86.19
61128;BME280;47013;42.664;23.242;2023-05-24T05:00:37;93902.63;;;13.42;84.52
61128;BME280;47013;42.664;23.242;2023-05-24T05:03:02;93896.25;;;13.48;83.82
61128;BME280;47013;42.664;23.242;2023-05-24T05:05:28;93900.09;;;13.67;83.49
61128;BME280;47013;42.664;23.242;2023-05-24T05:07:53;93900.16;;;13.80;81.59
61128;BME280;47013;42.664;23.242;2023-05-24T05:10:18;93902.47;;;13.98;80.53
61128;BME280;47013;42.664;23.242;2023-05-24T05:12:44;93899.75;;;13.98;80.75
61128;BME280;47013;42.664;23.242;2023-05-24T05:15:09;93897.50;;;13.93;80.25
61128;BME280;47013;42.664;23.242;2023-05-24T05:17:35;93909.88;;;13.97;80.48
61128;BME280;47013;42.664;23.242;2023-05-24T05:20:01;93907.38;;;14.03;81.29
61128;BME280;47013;42.664;23.242;2023-05-24T05:22:27;93913.34;;;14.14;80.92
61128;BME280;47013;42.664;23.242;2023-05-24T05:24:53;93906.94;;;14.21;80.60
61128;BME280;47013;42.664;23.242;2023-05-24T05:27:18;93908.72;;;14.27;80.37
61128;BME280;47013;42.664;23.242;2023-05-24T05:29:43;93918.50;;;14.41;80.42
61128;BME280;47013;42.664;23.242;2023-05-24T05:32:09;93915.94;;;14.50;79.01
61128;BME280;47013;42.664;23.242;2023-05-24T05:34:34;93913.31;;;14.47;79.24
61128;BME280;47013;42.664;23.242;2023-05-24T05:37:00;93926.69;;;14.70;78.72
61128;BME280;47013;42.664;23.242;2023-05-24T05:39:25;93926.69;;;14.70;77.69
61128;BME280;47013;42.664;23.242;2023-05-24T05:41:51;93915.06;;;14.82;77.51
61128;BME280;47013;42.664;23.242;2023-05-24T05:44:16;93909.97;;;14.97;76.97
61128;BME280;47013;42.664;23.242;2023-05-24T05:46:42;93908.34;;;14.99;76.52
61128;BME280;47013;42.664;23.242;2023-05-24T05:49:13;93917.75;;;15.11;75.61
61128;BME280;47013;42.664;23.242;2023-05-24T05:51:40;93909.34;;;15.31;75.57
61128;BME280;47013;42.664;23.242;2023-05-24T05:54:05;93912.34;;;15.37;73.84
61128;BME280;47013;42.664;23.242;2023-05-24T05:56:32;93908.16;;;15.45;73.13
61128;BME280;47013;42.664;23.242;2023-05-24T05:58:59;93921.63;;;15.52;73.13
61128;BME280;47013;42.664;23.242;2023-05-24T06:01:25;93922.25;;;15.43;72.89
61128;BME280;47013;42.664;23.242;2023-05-24T06:03:50;93925.69;;;15.60;72.99
61128;BME280;47013;42.664;23.242;2023-05-24T06:06:16;93933.22;;;15.69;73.36
61128;BME280;47013;42.664;23.242;2023-05-24T06:08:42;93936.84;;;15.78;72.33
61128;BME280;47013;42.664;23.242;2023-05-24T06:11:07;93928.41;;;15.73;72.28
61128;BME280;47013;42.664;23.242;2023-05-24T06:13:33;93940.22;;;15.95;72.65
61128;BME280;47013;42.664;23.242;2023-05-24T06:15:58;93941.59;;;16.12;72.67
61128;BME280;47013;42.664;23.242;2023-05-24T06:18:25;93938.53;;;16.23;72.14
61128;BME280;47013;42.664;23.242;2023-05-24T06:20:51;93929.31;;;16.30;70.88
61128;BME280;47013;42.664;23.242;2023-05-24T06:23:17;93938.25;;;16.43;69.53
61128;BME280;47013;42.664;23.242;2023-05-24T06:25:42;93932.66;;;16.46;69.62
61128;BME280;47013;42.664;23.242;2023-05-24T06:28:08;93934.72;;;16.55;68.82
61128;BME280;47013;42.664;23.242;2023-05-24T06:30:34;93932.53;;;16.85;79.82
61128;BME280;47013;42.664;23.242;2023-05-24T06:33:00;93930.19;;;16.96;67.96
61128;BME280;47013;42.664;23.242;2023-05-24T06:35:26;93933.94;;;17.11;68.14
61128;BME280;47013;42.664;23.242;2023-05-24T06:37:51;93929.84;;;17.16;65.30
61128;BME280;47013;42.664;23.242;2023-05-24T06:40:17;93941.94;;;17.27;64.49
61128;BME280;47013;42.664;23.242;2023-05-24T06:42:42;93933.56;;;17.31;63.08
61128;BME280;47013;42.664;23.242;2023-05-24T06:45:08;93928.69;;;17.57;62.88
61128;BME280;47013;42.664;23.242;2023-05-24T06:47:34;93931.75;;;17.59;63.91
61128;BME280;47013;42.664;23.242;2023-05-24T06:50:00;93934.53;;;17.68;62.74
61128;BME280;47013;42.664;23.242;2023-05-24T06:52:26;93924.13;;;17.85;63.91
61128;BME280;47013;42.664;23.242;2023-05-24T06:54:52;93929.50;;;17.97;62.01
61128;BME280;47013;42.664;23.242;2023-05-24T06:57:17;93923.09;;;18.01;61.93
61128;BME280;47013;42.664;23.242;2023-05-24T06:59:42;93928.28;;;18.08;61.12
61128;BME280;47013;42.664;23.242;2023-05-24T07:02:08;93929.09;;;18.26;60.83
61128;BME280;47013;42.664;23.242;2023-05-24T07:04:33;93928.19;;;18.48;60.44
61128;BME280;47013;42.664;23.242;2023-05-24T07:06:59;93929.28;;;18.60;59.05
61128;BME280;47013;42.664;23.242;2023-05-24T07:09:24;93933.13;;;18.71;59.25
61128;BME280;47013;42.664;23.242;2023-05-24T07:11:49;93924.59;;;18.97;58.57
61128;BME280;47013;42.664;23.242;2023-05-24T07:14:15;93931.13;;;19.18;57.95
61128;BME280;47013;42.664;23.242;2023-05-24T07:16:40;93923.66;;;19.18;58.70
61128;BME280;47013;42.664;23.242;2023-05-24T07:19:06;93919.50;;;19.32;58.75
61128;BME280;47013;42.664;23.242;2023-05-24T07:21:32;93930.31;;;19.35;59.03
61128;BME280;47013;42.664;23.242;2023-05-24T07:23:57;93930.91;;;19.39;57.05
61128;BME280;47013;42.664;23.242;2023-05-24T07:26:22;93929.38;;;19.48;56.49
61128;BME280;47013;42.664;23.242;2023-05-24T07:28:48;93939.44;;;19.69;56.89
61128;BME280;47013;42.664;23.242;2023-05-24T07:31:13;93937.66;;;19.90;56.14
61128;BME280;47013;42.664;23.242;2023-05-24T07:33:39;93939.91;;;20.00;54.69
61128;BME280;47013;42.664;23.242;2023-05-24T07:36:05;93935.19;;;19.92;53.27
61128;BME280;47013;42.664;23.242;2023-05-24T07:38:30;93930.84;;;20.09;53.38
61128;BME280;47013;42.664;23.242;2023-05-24T07:41:00;93941.16;;;20.23;54.90
61128;BME280;47013;42.664;23.242;2023-05-24T07:43:26;93934.72;;;20.26;52.13
61128;BME280;47013;42.664;23.242;2023-05-24T07:45:52;93934.69;;;20.36;53.90
61128;BME280;47013;42.664;23.242;2023-05-24T07:48:21;93936.28;;;20.51;52.11
61128;BME280;47013;42.664;23.242;2023-05-24T07:50:50;93936.63;;;20.68;52.20
61128;BME280;47013;42.664;23.242;2023-05-24T07:53:17;93932.06;;;20.65;51.78
61128;BME280;47013;42.664;23.242;2023-05-24T07:55:43;93925.31;;;20.66;51.29
61128;BME280;47013;42.664;23.242;2023-05-24T07:58:12;93927.94;;;20.84;51.18
61128;BME280;47013;42.664;23.242;2023-05-24T08:00:37;93928.28;;;20.77;50.55
61128;BME280;47013;42.664;23.242;2023-05-24T08:03:05;93926.09;;;20.81;50.67
61128;BME280;47013;42.664;23.242;2023-05-24T08:05:30;93927.28;;;21.04;50.76
61128;BME280;47013;42.664;23.242;2023-05-24T08:07:56;93930.66;;;21.23;50.91
61128;BME280;47013;42.664;23.242;2023-05-24T08:10:22;93925.53;;;21.45;52.34
61128;BME280;47013;42.664;23.242;2023-05-24T08:12:48;93914.97;;;21.59;48.75
61128;BME280;47013;42.664;23.242;2023-05-24T08:15:15;93927.44;;;21.69;48.35
61128;BME280;47013;42.664;23.242;2023-05-24T08:17:41;93927.41;;;21.84;48.17
61128;BME280;47013;42.664;23.242;2023-05-24T08:20:07;93919.31;;;21.95;46.87
61128;BME280;47013;42.664;23.242;2023-05-24T08:22:34;93929.53;;;22.24;45.54
61128;BME280;47013;42.664;23.242;2023-05-24T08:24:59;93925.47;;;22.19;45.69
61128;BME280;47013;42.664;23.242;2023-05-24T08:27:25;93911.59;;;22.34;44.60
61128;BME280;47013;42.664;23.242;2023-05-24T08:29:53;93924.34;;;22.46;46.18
61128;BME280;47013;42.664;23.242;2023-05-24T08:32:18;93922.25;;;22.61;43.91
61128;BME280;47013;42.664;23.242;2023-05-24T08:34:44;93922.81;;;22.65;43.26
61128;BME280;47013;42.664;23.242;2023-05-24T08:37:09;93918.47;;;22.79;43.57
61128;BME280;47013;42.664;23.242;2023-05-24T08:39:35;93920.47;;;22.99;41.00
61128;BME280;47013;42.664;23.242;2023-05-24T08:42:01;93927.38;;;23.09;37.27
61128;BME280;47013;42.664;23.242;2023-05-24T08:44:28;93925.00;;;23.22;35.71
61128;BME280;47013;42.664;23.242;2023-05-24T08:46:57;93925.22;;;23.19;36.41
61128;BME280;47013;42.664;23.242;2023-05-24T08:49:23;93920.59;;;23.36;36.51
61128;BME280;47013;42.664;23.242;2023-05-24T08:51:48;93919.03;;;23.30;36.18
61128;BME280;47013;42.664;23.242;2023-05-24T08:54:16;93917.13;;;23.41;37.55
61128;BME280;47013;42.664;23.242;2023-05-24T08:56:43;93922.00;;;23.52;37.17
61128;BME280;47013;42.664;23.242;2023-05-24T08:59:09;93914.56;;;23.58;37.78
61128;BME280;47013;42.664;23.242;2023-05-24T09:01:37;93916.56;;;23.58;36.30
61128;BME280;47013;42.664;23.242;2023-05-24T09:04:05;93919.19;;;23.72;36.86
61128;BME280;47013;42.664;23.242;2023-05-24T09:06:31;93921.38;;;23.94;34.64
61128;BME280;47013;42.664;23.242;2023-05-24T09:08:58;93920.44;;;24.03;36.10
61128;BME280;47013;42.664;23.242;2023-05-24T09:11:24;93917.81;;;24.25;34.47
61128;BME280;47013;42.664;23.242;2023-05-24T09:13:51;93916.88;;;24.34;35.86
61128;BME280;47013;42.664;23.242;2023-05-24T09:16:19;93917.31;;;24.27;33.41
61128;BME280;47013;42.664;23.242;2023-05-24T09:18:45;93911.56;;;24.30;32.79
61128;BME280;47013;42.664;23.242;2023-05-24T09:21:10;93914.38;;;24.36;33.81
61128;BME280;47013;42.664;23.242;2023-05-24T09:23:36;93915.97;;;24.48;34.05
61128;BME280;47013;42.664;23.242;2023-05-24T09:26:06;93906.97;;;24.70;33.96
61128;BME280;47013;42.664;23.242;2023-05-24T09:28:32;93913.63;;;24.89;33.00
61128;BME280;47013;42.664;23.242;2023-05-24T09:30:59;93904.09;;;25.02;32.51
61128;BME280;47013;42.664;23.242;2023-05-24T09:33:32;93899.50;;;24.87;32.87
61128;BME280;47013;42.664;23.242;2023-05-24T09:35:59;93902.22;;;24.76;32.66
61128;BME280;47013;42.664;23.242;2023-05-24T09:38:25;93906.97;;;24.70;33.09
61128;BME280;47013;42.664;23.242;2023-05-24T09:43:24;93895.31;;;25.14;32.62
61128;BME280;47013;42.664;23.242;2023-05-24T09:45:49;93905.94;;;25.38;30.77
61128;BME280;47013;42.664;23.242;2023-05-24T09:48:15;93898.91;;;25.65;31.68
61128;BME280;47013;42.664;23.242;2023-05-24T09:50:56;93901.66;;;25.65;30.12
61128;BME280;47013;42.664;23.242;2023-05-24T09:53:23;93898.91;;;25.65;30.16
61128;BME280;47013;42.664;23.242;2023-05-24T09:55:49;93900.44;;;25.66;28.87
61128;BME280;47013;42.664;23.242;2023-05-24T09:58:15;93903.22;;;25.72;28.49
61128;BME280;47013;42.664;23.242;2023-05-24T10:00:41;93892.34;;;25.91;28.75
61128;BME280;47013;42.664;23.242;2023-05-24T10:03:08;93893.91;;;25.92;27.63
61128;BME280;47013;42.664;23.242;2023-05-24T10:05:35;93900.69;;;26.02;28.34
61128;BME280;47013;42.664;23.242;2023-05-24T10:08:01;93897.91;;;25.91;27.21
61128;BME280;47013;42.664;23.242;2023-05-24T10:10:31;93885.28;;;26.01;28.58
61128;BME280;47013;42.664;23.242;2023-05-24T10:12:58;93892.38;;;25.85;27.78
61128;BME280;47013;42.664;23.242;2023-05-24T10:15:25;93895.41;;;25.93;28.07
61128;BME280;47013;42.664;23.242;2023-05-24T10:17:52;93887.56;;;26.02;26.13
61128;BME280;47013;42.664;23.242;2023-05-24T10:20:18;93893.13;;;25.97;27.22
61128;BME280;47013;42.664;23.242;2023-05-24T10:22:46;93891.31;;;26.16;26.87
61128;BME280;47013;42.664;23.242;2023-05-24T10:25:26;93892.09;;;26.22;27.75
61128;BME280;47013;42.664;23.242;2023-05-24T10:27:55;93887.25;;;26.39;27.70
61128;BME280;47013;42.664;23.242;2023-05-24T10:32:51;93882.16;;;26.60;26.88
61128;BME280;47013;42.664;23.242;2023-05-24T10:35:17;93876.31;;;26.69;27.10
61128;BME280;47013;42.664;23.242;2023-05-24T10:37:47;93874.28;;;26.64;26.30
61128;BME280;47013;42.664;23.242;2023-05-24T10:40:21;93878.88;;;26.51;26.09
61128;BME280;47013;42.664;23.242;2023-05-24T10:42:49;93875.63;;;26.35;26.36
61128;BME280;47013;42.664;23.242;2023-05-24T10:47:47;93861.63;;;26.74;26.53
61128;BME280;47013;42.664;23.242;2023-05-24T10:50:17;93861.34;;;26.78;26.55
61128;BME280;47013;42.664;23.242;2023-05-24T10:52:43;93859.72;;;26.99;27.13
61128;BME280;47013;42.664;23.242;2023-05-24T10:55:09;93851.00;;;27.20;26.34
61128;BME280;47013;42.664;23.242;2023-05-24T10:57:36;93855.44;;;26.98;26.26
61128;BME280;47013;42.664;23.242;2023-05-24T11:03:21;93855.25;;;26.80;26.54
61128;BME280;47013;42.664;23.242;2023-05-24T11:08:24;93847.22;;;26.65;25.50
61128;BME280;47013;42.664;23.242;2023-05-24T11:11:11;93850.69;;;26.88;27.04
61128;BME280;47013;42.664;23.242;2023-05-24T11:13:39;93853.41;;;26.99;26.36
61128;BME280;47013;42.664;23.242;2023-05-24T11:16:05;93847.75;;;27.16;26.67
61128;BME280;47013;42.664;23.242;2023-05-24T11:18:31;93842.50;;;27.48;27.34
61128;BME280;47013;42.664;23.242;2023-05-24T11:21:03;93845.84;;;27.71;26.26
61128;BME280;47013;42.664;23.242;2023-05-24T11:23:30;93841.41;;;27.56;24.92
61128;BME280;47013;42.664;23.242;2023-05-24T11:25:56;93845.97;;;27.54;26.11
61128;BME280;47013;42.664;23.242;2023-05-24T11:28:22;93833.19;;;27.34;25.63
61128;BME280;47013;42.664;23.242;2023-05-24T11:30:47;93835.16;;;27.09;25.58
61128;BME280;47013;42.664;23.242;2023-05-24T11:33:31;93833.38;;;27.06;25.83
61128;BME280;47013;42.664;23.242;2023-05-24T11:35:57;93826.97;;;26.75;26.47
61128;BME280;47013;42.664;23.242;2023-05-24T11:38:24;93832.56;;;26.64;26.50
61128;BME280;47013;42.664;23.242;2023-05-24T11:40:49;93833.75;;;26.86;25.87
61128;BME280;47013;42.664;23.242;2023-05-24T11:43:19;93831.88;;;27.11;26.87
61128;BME280;47013;42.664;23.242;2023-05-24T11:45:46;93835.88;;;27.15;28.23
61128;BME280;47013;42.664;23.242;2023-05-24T11:48:13;93828.56;;;27.12;25.51
61128;BME280;47013;42.664;23.242;2023-05-24T11:50:40;93820.06;;;27.35;26.11
61128;BME280;47013;42.664;23.242;2023-05-24T11:53:12;93814.19;;;27.74;25.76
61128;BME280;47013;42.664;23.242;2023-05-24T11:55:39;93816.63;;;27.83;26.01
61128;BME280;47013;42.664;23.242;2023-05-24T11:58:22;93814.06;;;27.55;25.05
61128;BME280;47013;42.664;23.242;2023-05-24T12:00:48;93807.50;;;27.52;25.77
61128;BME280;47013;42.664;23.242;2023-05-24T12:03:14;93819.94;;;27.46;24.83
61128;BME280;47013;42.664;23.242;2023-05-24T12:05:41;93817.44;;;27.48;24.36
61128;BME280;47013;42.664;23.242;2023-05-24T12:08:09;93814.00;;;27.66;24.71
61128;BME280;47013;42.664;23.242;2023-05-24T12:10:37;93809.84;;;27.78;24.47
61128;BME280;47013;42.664;23.242;2023-05-24T12:13:03;93813.09;;;27.82;23.48
61128;BME280;47013;42.664;23.242;2023-05-24T12:15:30;93812.66;;;27.73;23.03
61128;BME280;47013;42.664;23.242;2023-05-24T12:17:58;93803.75;;;27.80;22.88
61128;BME280;47013;42.664;23.242;2023-05-24T12:20:26;93807.38;;;27.69;23.88
61128;BME280;47013;42.664;23.242;2023-05-24T12:22:53;93797.34;;;27.55;24.58
61128;BME280;47013;42.664;23.242;2023-05-24T12:25:19;93806.09;;;27.70;25.07
61128;BME280;47013;42.664;23.242;2023-05-24T12:27:46;93805.19;;;27.86;25.08
61128;BME280;47013;42.664;23.242;2023-05-24T12:30:16;93799.06;;;27.94;24.45
61128;BME280;47013;42.664;23.242;2023-05-24T12:32:49;93783.53;;;28.23;23.99
61128;BME280;47013;42.664;23.242;2023-05-24T12:35:16;93783.84;;;28.43;24.32
61128;BME280;47013;42.664;23.242;2023-05-24T12:37:42;93778.94;;;28.49;24.89
61128;BME280;47013;42.664;23.242;2023-05-24T12:40:15;93785.03;;;28.48;24.00
61128;BME280;47013;42.664;23.242;2023-05-24T12:42:43;93788.88;;;27.96;23.18
61128;BME280;47013;42.664;23.242;2023-05-24T12:45:10;93786.41;;;27.92;23.56
61128;BME280;47013;42.664;23.242;2023-05-24T12:47:36;93786.28;;;27.79;23.43
61128;BME280;47013;42.664;23.242;2023-05-24T12:50:02;93783.94;;;27.83;23.07
61128;BME280;47013;42.664;23.242;2023-05-24T12:52:27;93784.81;;;27.97;23.08
61128;BME280;47013;42.664;23.242;2023-05-24T12:54:52;93780.06;;;28.16;23.27
61128;BME280;47013;42.664;23.242;2023-05-24T12:57:18;93782.16;;;28.35;21.99
61128;BME280;47013;42.664;23.242;2023-05-24T12:59:43;93772.00;;;28.56;22.80
61128;BME280;47013;42.664;23.242;2023-05-24T13:02:09;93773.59;;;28.70;23.08
61128;BME280;47013;42.664;23.242;2023-05-24T13:04:35;93774.63;;;28.48;23.71
61128;BME280;47013;42.664;23.242;2023-05-24T13:07:01;93775.28;;;28.36;24.55
61128;BME280;47013;42.664;23.242;2023-05-24T13:09:27;93765.19;;;28.33;24.54
61128;BME280;47013;42.664;23.242;2023-05-24T13:11:53;93765.16;;;28.57;24.86
61128;BME280;47013;42.664;23.242;2023-05-24T13:14:19;93753.53;;;28.10;23.24